Airfield :
LOGIN :

Register | Disclaimer

   EN    FR    IT 

 










Legend :    VFR   Marginal VFR   IFR   Intensive IFR   Very Intensive IFR
Visi :
Ceiling :
>= 8 km
>= 3000ft
5 to 8 km
1000 to 3000 ft
1500m to 5 km
500 to 1000 ft
800 to 1500m
200 to 500 ft
< 800m
< 200 ft
Symbols :   Thunderstorms  Fog  Heavy snow  Heavy precipitations  Wind > 20 kt
SIGMETs :     Misc.  Thunderstorms  Icing  Turbulence  Mountain Waves  Volcanic Ashes






- Airport Elevation : 65 ft
- IATA code : PIK


EGPK - Glasgow Prestwick

CURRENT METAR :
  • 082120Z 25009KT 9999 FEW012 BKN017 06/04 Q0981

EXPIRED METARs :
  • 082050Z 26024G34KT 9999 -RA FEW012 BKN017 06/03 Q0981
  • 082020Z 22018KT 9999 FEW012 BKN017 07/05 Q0980
  • 081950Z 22021KT 9999 -RA FEW012 BKN017 08/05 Q0980
  • 081920Z 21023KT 9999 -RA FEW012 BKN017 07/05 Q0980
  • 081850Z 21021KT 9999 -RA FEW012 BKN017 08/05 Q0979
  • 081820Z 22022KT 9000 -RA FEW010 BKN017 07/05 Q0980

TAF TAF EGPK
Valid from the 08 at 18:00 until the 09 at 18:00 UTC


081656Z 0818/0918 23017KT 9999 SCT018
TEMPO 0818/0821 26022G33KT 6000 SHRA BKN012
PROB30
TEMPO 0818/0821 3000 TSRA +SHRA BKN009CB
BECMG 0821/0824 32015KT
TEMPO 0900/0909 33022G35KT 6000 SHRA BKN014
BECMG 0915/0918 VRB04KT



MET'MAP, your aeronautical weather chart ! - Copyright ORBIFLY December 2007 - Disclaimer

ORBIFLY MET'MAP TEAM :

Programming & Development : Alexandra Zaïnal
Concept & original design : Baudouin d'Aumeries
Assistance for programming : Marc-Olivier Méhu
Technical & hardware support : Manuel Goepfert

Contact : metmap@orbifly.com




SOURCES & CREDITS :

   NOAA